ADL weather

Adelaide International Airport
Adelaide, South Australia, Australia

Public forecast

Using degrees Celsius for public forecast. Weather courtesy of forecast.io.

Current aviation weather report (METAR) for Adelaide International Airport

Retrieved 2019/11/20 05:30 UTC (30 minutes ago):

YPAD 200530Z 33022KT CAVOK 39/M02 Q1001 NOSIG

Aviation forecast (TAF) for Adelaide International Airport

Forecast is more than 6 hours old.

Retrieved 2019-11-20 00:00 UTC (6 hours ago):

TAF YPAD 192320Z 2000/2106 01018G30KT CAVOK FM200200 34022G35KT 9000 HZ NSC FM200900 36018KT CAVOK FM201300 02012KT CAVOK FM201700 30014KT CAVOK FM201900 23015KT CAVOK FM202100 23016KT 9999 BKN020 FM210300 22014KT CAVOK